Time;durP1;ratioP1;P1;durP2;ratioP2;P2;SDS_P1;SDS_P2;PMS_P1;PMS_P2;Temp;Humidity;BMP_temperature;BMP_pressure;BME280_temperature;BME280_humidity;BME280_pressure;Samples;Min_cycle;Max_cycle;Signal;HPM_P1;HPM_P2
2022/03/25 00:01:55;;;;;;;56.40;34.75;;;7.80;61.80;;;;;;5029237;28;20053;-72
2022/03/25 00:04:21;;;;;;;58.30;34.95;;;7.70;62.20;;;;;;5014979;28;20416;-69
2022/03/25 00:06:47;;;;;;;58.08;36.05;;;7.60;62.30;;;;;;5013568;28;20080;-71
2022/03/25 00:09:13;;;;;;;65.57;35.47;;;7.60;62.30;;;;;;4985835;28;20891;-71
2022/03/25 00:11:40;;;;;;;54.92;34.30;;;7.30;62.50;;;;;;5006854;28;20037;-70
2022/03/25 00:14:06;;;;;;;55.92;33.83;;;7.40;62.80;;;;;;5013562;28;20052;-72
2022/03/25 00:16:32;;;;;;;48.65;30.77;;;7.40;62.70;;;;;;5029114;28;20037;-70
2022/03/25 00:18:58;;;;;;;48.88;31.15;;;7.40;62.40;;;;;;5013129;28;20030;-71
2022/03/25 00:21:25;;;;;;;48.00;28.83;;;7.40;62.60;;;;;;5010266;28;20026;-71
2022/03/25 00:23:51;;;;;;;43.45;27.38;;;7.50;62.60;;;;;;5021837;28;20029;-70
2022/03/25 00:26:17;;;;;;;41.20;27.67;;;7.50;62.40;;;;;;5025818;28;20037;-70
2022/03/25 00:28:43;;;;;;;45.25;27.48;;;7.50;62.80;;;;;;5011252;28;20156;-72
2022/03/25 00:31:09;;;;;;;38.58;25.95;;;7.50;62.40;;;;;;5006568;28;20033;-69
2022/03/25 00:33:37;;;;;;;45.80;29.60;;;7.40;62.10;;;;;;5006948;28;20032;-70
2022/03/25 00:36:04;;;;;;;42.88;25.80;;;7.40;62.40;;;;;;5005404;28;20082;-73
2022/03/25 00:38:45;;;;;;;44.30;28.27;;;7.30;62.10;;;;;;5021987;28;20574;-72
2022/03/25 00:41:22;;;;;;;40.15;26.00;;;7.40;62.60;;;;;;5001646;28;20092;-72
2022/03/25 00:43:48;;;;;;;43.13;26.50;;;7.30;62.30;;;;;;4973163;28;20508;-70
2022/03/25 00:46:15;;;;;;;46.38;27.23;;;7.30;62.40;;;;;;4985800;28;20065;-69
2022/03/25 00:48:42;;;;;;;43.13;24.92;;;7.30;62.20;;;;;;4987817;28;20069;-71
2022/03/25 00:51:10;;;;;;;43.85;26.80;;;7.30;62.20;;;;;;4990823;28;20084;-70
2022/03/25 00:53:38;;;;;;;40.38;25.63;;;7.30;62.30;;;;;;4986764;28;20088;-69
2022/03/25 00:56:05;;;;;;;37.03;24.70;;;7.30;62.20;;;;;;4990671;28;20126;-68
2022/03/25 00:58:34;;;;;;;33.17;23.20;;;7.20;62.40;;;;;;4974322;28;20157;-70
2022/03/25 01:01:00;;;;;;;38.38;25.63;;;7.20;62.20;;;;;;4973322;28;20495;-68
2022/03/25 01:03:26;;;;;;;41.85;25.95;;;7.20;62.50;;;;;;4990314;28;20039;-69
2022/03/25 01:05:54;;;;;;;33.20;22.80;;;7.20;62.40;;;;;;4973432;28;20033;-68
2022/03/25 01:08:20;;;;;;;40.70;21.48;;;7.10;62.60;;;;;;4990780;28;20042;-68
2022/03/25 01:10:52;;;;;;;38.40;22.25;;;7.10;62.80;;;;;;4990225;28;20046;-70
2022/03/25 01:13:21;;;;;;;35.17;21.35;;;7.10;62.60;;;;;;4973614;28;20614;-69
2022/03/25 01:15:47;;;;;;;35.28;22.63;;;7.00;62.40;;;;;;4992198;28;20041;-68
2022/03/25 01:18:17;;;;;;;36.67;22.98;;;7.00;62.50;;;;;;5027343;28;20026;-72
2022/03/25 01:20:46;;;;;;;36.40;21.73;;;7.00;62.80;;;;;;4994608;28;20061;-71
2022/03/25 01:23:16;;;;;;;36.38;20.55;;;6.90;62.90;;;;;;5027604;28;20495;-70
2022/03/25 01:25:44;;;;;;;34.50;22.15;;;6.90;63.10;;;;;;5012337;28;20033;-71
2022/03/25 01:28:11;;;;;;;32.08;20.42;;;6.90;63.00;;;;;;5012585;28;20033;-68
2022/03/25 01:30:40;;;;;;;35.88;21.23;;;6.90;63.00;;;;;;5010844;28;20546;-71
2022/03/25 01:33:06;;;;;;;30.25;19.83;;;6.80;63.30;;;;;;5027606;28;20484;-72
2022/03/25 01:35:32;;;;;;;31.02;20.58;;;6.80;63.10;;;;;;5011085;28;20026;-72
2022/03/25 01:37:59;;;;;;;36.55;22.13;;;6.80;63.20;;;;;;5012188;28;20443;-70
2022/03/25 01:40:31;;;;;;;39.20;21.02;;;6.80;63.40;;;;;;5010992;28;20022;-70
2022/03/25 01:42:57;;;;;;;30.73;20.63;;;6.80;63.10;;;;;;4994896;28;20449;-71
2022/03/25 01:45:38;;;;;;;34.35;20.38;;;6.80;63.80;;;;;;5026902;28;20073;-71
2022/03/25 01:48:09;;;;;;;38.53;21.65;;;6.80;63.30;;;;;;4994485;28;20038;-72
2022/03/25 01:50:36;;;;;;;38.08;22.35;;;6.80;63.20;;;;;;5011348;28;20527;-72
2022/03/25 01:53:03;;;;;;;37.55;20.60;;;6.70;63.50;;;;;;5011430;28;20445;-72
2022/03/25 01:55:37;;;;;;;38.53;23.23;;;6.70;63.50;;;;;;5011764;28;20036;-72
2022/03/25 01:58:05;;;;;;;33.22;21.15;;;6.60;63.60;;;;;;4994182;28;20034;-71
2022/03/25 02:00:32;;;;;;;31.95;19.85;;;6.60;63.50;;;;;;4994358;28;20096;-69
2022/03/25 02:02:58;;;;;;;31.67;20.10;;;6.60;63.80;;;;;;5011689;28;20045;-71
2022/03/25 02:05:25;;;;;;;37.00;20.35;;;6.60;64.10;;;;;;5010757;28;20034;-70
2022/03/25 02:07:51;;;;;;;32.28;19.80;;;6.50;64.20;;;;;;5011944;28;20045;-71
2022/03/25 02:10:18;;;;;;;39.22;23.60;;;6.40;63.90;;;;;;4994072;28;20537;-71
2022/03/25 02:12:48;;;;;;;35.25;19.80;;;6.40;64.10;;;;;;4993810;28;20034;-69
2022/03/25 02:15:14;;;;;;;32.95;19.38;;;6.30;64.30;;;;;;4994566;28;20052;-71
2022/03/25 02:17:42;;;;;;;36.78;21.02;;;6.20;64.60;;;;;;5026588;28;20026;-69
2022/03/25 02:20:09;;;;;;;31.95;19.23;;;6.10;64.70;;;;;;4994616;28;20022;-68
2022/03/25 02:22:36;;;;;;;34.15;19.80;;;6.10;64.80;;;;;;5010434;28;20026;-70
2022/03/25 02:25:10;;;;;;;38.22;23.83;;;6.10;64.80;;;;;;5011616;28;20511;-71
2022/03/25 02:27:38;;;;;;;46.60;23.80;;;6.00;65.20;;;;;;5010228;28;20041;-71
2022/03/25 02:30:08;;;;;;;36.08;20.98;;;6.00;65.10;;;;;;5026606;28;20038;-70
2022/03/25 02:32:39;;;;;;;40.97;22.17;;;5.90;65.10;;;;;;4993991;28;20033;-72
2022/03/25 02:35:06;;;;;;;37.92;21.92;;;5.90;65.40;;;;;;5012005;28;20033;-71
2022/03/25 02:37:33;;;;;;;35.20;19.08;;;5.80;65.60;;;;;;5011511;28;20100;-70
2022/03/25 02:39:59;;;;;;;35.92;20.80;;;5.90;65.80;;;;;;5025897;28;20030;-71
2022/03/25 02:42:25;;;;;;;38.35;23.05;;;5.80;66.40;;;;;;5010256;28;20034;-71
2022/03/25 02:44:51;;;;;;;39.35;23.50;;;5.70;66.30;;;;;;5026464;28;20687;-70
2022/03/25 02:47:17;;;;;;;32.83;20.52;;;5.70;66.40;;;;;;5009663;28;20046;-71
2022/03/25 02:49:43;;;;;;;34.67;22.35;;;5.70;66.00;;;;;;5010154;28;20030;-71
2022/03/25 02:52:09;;;;;;;38.47;22.90;;;5.70;66.40;;;;;;5011221;28;20033;-71
2022/03/25 02:54:35;;;;;;;41.17;22.35;;;5.70;66.30;;;;;;5011425;28;20026;-73
2022/03/25 02:57:01;;;;;;;34.63;21.63;;;5.60;66.30;;;;;;5011345;28;20084;-71
2022/03/25 02:59:27;;;;;;;34.72;23.40;;;5.70;66.70;;;;;;4993981;28;20037;-71
2022/03/25 03:01:53;;;;;;;33.00;21.70;;;5.70;66.10;;;;;;5011617;28;20535;-72
2022/03/25 03:04:19;;;;;;;42.83;26.77;;;5.70;66.20;;;;;;5011905;28;20056;-72
2022/03/25 03:06:45;;;;;;;40.15;25.58;;;5.60;66.40;;;;;;5010844;28;20443;-70
2022/03/25 03:09:11;;;;;;;49.88;28.63;;;5.50;66.60;;;;;;4993760;28;20038;-70
2022/03/25 03:11:37;;;;;;;51.25;29.75;;;5.50;66.60;;;;;;5011278;28;20026;-70
2022/03/25 03:14:04;;;;;;;48.80;26.80;;;5.50;66.80;;;;;;5011313;28;20026;-70
2022/03/25 03:16:30;;;;;;;51.22;27.98;;;5.50;66.90;;;;;;5026055;28;20026;-70
2022/03/25 03:18:57;;;;;;;41.80;27.88;;;5.40;67.20;;;;;;5011300;28;20026;-70
2022/03/25 03:21:24;;;;;;;50.20;29.80;;;5.20;68.30;;;;;;5012549;28;20025;-70
2022/03/25 03:23:53;;;;;;;48.40;27.30;;;5.20;68.00;;;;;;5014377;28;20058;-70
2022/03/25 03:26:20;;;;;;;48.25;27.02;;;5.20;68.00;;;;;;5013113;28;20113;-69
2022/03/25 03:28:47;;;;;;;42.20;25.15;;;5.10;68.00;;;;;;4993628;28;20033;-71
2022/03/25 03:31:13;;;;;;;34.88;21.55;;;5.10;68.20;;;;;;4993550;28;20030;-70
2022/03/25 03:33:39;;;;;;;37.08;19.83;;;5.00;68.40;;;;;;4977811;28;20118;-70
2022/03/25 03:36:05;;;;;;;35.83;20.30;;;5.10;68.40;;;;;;4994882;28;20176;-71
2022/03/25 03:38:34;;;;;;;35.08;19.50;;;4.90;68.30;;;;;;5011421;28;20105;-71
2022/03/25 03:41:00;;;;;;;34.65;19.38;;;4.90;68.30;;;;;;5013118;28;20456;-70
2022/03/25 03:43:26;;;;;;;38.47;24.15;;;4.90;68.60;;;;;;4996670;28;20045;-70
2022/03/25 03:45:52;;;;;;;41.05;22.52;;;4.80;68.20;;;;;;5012633;28;20054;-70
2022/03/25 03:48:18;;;;;;;36.22;21.67;;;4.70;68.40;;;;;;5014164;28;20510;-70
2022/03/25 03:50:44;;;;;;;32.85;20.42;;;4.70;68.40;;;;;;5014069;28;20026;-70
2022/03/25 03:53:10;;;;;;;36.42;19.10;;;4.80;68.50;;;;;;5013572;28;20032;-70
2022/03/25 03:55:36;;;;;;;31.27;19.55;;;4.80;68.50;;;;;;5028065;28;20029;-69
2022/03/25 03:58:30;;;;;;;33.10;19.15;;;4.90;68.50;;;;;;5014283;28;20045;-69
2022/03/25 04:00:56;;;;;;;31.25;19.02;;;4.80;68.60;;;;;;5012830;28;20030;-71
2022/03/25 04:03:22;;;;;;;30.40;17.30;;;4.80;68.50;;;;;;5014482;28;20029;-71
2022/03/25 04:05:50;;;;;;;27.25;16.55;;;4.90;68.40;;;;;;5013711;28;20030;-71
2022/03/25 04:08:16;;;;;;;29.45;17.75;;;4.90;68.30;;;;;;5028199;28;20494;-70
2022/03/25 04:10:42;;;;;;;34.50;19.13;;;4.90;68.20;;;;;;5013090;28;20026;-72
2022/03/25 04:13:08;;;;;;;35.63;21.25;;;4.70;67.80;;;;;;5012145;28;20033;-70
2022/03/25 04:15:34;;;;;;;29.92;19.50;;;4.70;68.40;;;;;;5009823;28;20380;-69
2022/03/25 04:18:01;;;;;;;42.05;24.67;;;4.80;68.40;;;;;;5012239;28;20022;-70
2022/03/25 04:20:27;;;;;;;40.00;23.85;;;4.70;68.30;;;;;;5007391;28;20029;-71
2022/03/25 04:22:53;;;;;;;32.20;19.33;;;4.70;68.30;;;;;;5012609;28;20387;-71
2022/03/25 04:25:19;;;;;;;31.35;19.02;;;4.70;68.10;;;;;;4995157;28;20026;-70
2022/03/25 04:28:01;;;;;;;30.20;19.10;;;4.70;68.30;;;;;;5012823;28;20125;-67
2022/03/25 04:30:30;;;;;;;36.25;21.05;;;4.80;68.40;;;;;;5012505;28;20064;-69
2022/03/25 04:32:57;;;;;;;43.25;23.73;;;4.80;68.70;;;;;;5012656;28;20495;-71
2022/03/25 04:35:24;;;;;;;39.38;21.85;;;4.80;68.30;;;;;;4995509;28;20125;-70
2022/03/25 04:37:50;;;;;;;44.65;26.35;;;4.80;68.40;;;;;;5012954;28;20026;-69
2022/03/25 04:40:23;;;;;;;61.30;32.80;;;4.70;68.40;;;;;;5012566;28;20033;-69
2022/03/25 04:42:51;;;;;;;61.47;31.73;;;4.70;68.40;;;;;;4993284;28;20110;-70
2022/03/25 04:45:19;;;;;;;53.38;30.02;;;4.70;68.90;;;;;;4995214;28;20038;-70
2022/03/25 04:47:46;;;;;;;49.95;27.63;;;4.60;68.70;;;;;;4994801;28;20038;-70
2022/03/25 04:50:12;;;;;;;64.93;35.60;;;4.70;68.40;;;;;;5012165;28;20536;-70
2022/03/25 04:52:39;;;;;;;54.83;30.83;;;4.90;68.90;;;;;;5012313;28;20125;-71
2022/03/25 04:55:08;;;;;;;46.25;25.17;;;5.30;68.20;;;;;;5012254;28;20050;-69
2022/03/25 04:57:34;;;;;;;44.97;25.40;;;5.80;67.20;;;;;;4975982;28;20070;-69
2022/03/25 05:00:00;;;;;;;43.67;27.00;;;6.20;66.50;;;;;;5025718;28;20454;-71
2022/03/25 05:02:28;;;;;;;41.75;25.42;;;6.60;65.90;;;;;;5011926;28;20065;-71
2022/03/25 05:04:55;;;;;;;47.78;29.08;;;7.00;64.90;;;;;;4994813;28;20117;-72
2022/03/25 05:07:21;;;;;;;48.95;30.20;;;7.30;63.80;;;;;;5012287;28;20073;-72
2022/03/25 05:09:47;;;;;;;44.50;27.77;;;7.60;63.00;;;;;;5012198;28;20037;-72
2022/03/25 05:12:21;;;;;;;57.58;31.00;;;8.10;62.60;;;;;;5026436;28;20037;-71
2022/03/25 05:14:47;;;;;;;40.65;24.38;;;8.40;61.50;;;;;;5009644;28;20022;-66
2022/03/25 05:17:13;;;;;;;42.90;26.52;;;8.70;60.50;;;;;;5026519;28;20040;-73
2022/03/25 05:19:39;;;;;;;44.80;26.02;;;9.00;60.20;;;;;;5027159;28;20113;-72
2022/03/25 05:22:06;;;;;;;39.40;25.85;;;9.30;60.10;;;;;;5012007;28;20550;-70
2022/03/25 05:24:32;;;;;;;40.72;26.63;;;10.00;59.20;;;;;;5009901;28;20113;-70
2022/03/25 05:27:02;;;;;;;38.63;26.85;;;10.30;58.00;;;;;;5011868;28;20124;-71
2022/03/25 05:29:28;;;;;;;42.63;25.85;;;10.70;56.60;;;;;;5011155;28;20100;-71
2022/03/25 05:31:55;;;;;;;40.25;25.10;;;11.20;56.70;;;;;;5027352;28;20026;-72
2022/03/25 05:34:21;;;;;;;34.30;23.73;;;11.40;56.90;;;;;;5010876;28;20034;-72
2022/03/25 05:36:47;;;;;;;35.50;22.20;;;11.80;55.80;;;;;;5011629;28;20095;-72
2022/03/25 05:39:14;;;;;;;34.88;21.92;;;12.10;55.30;;;;;;5012240;28;20583;-72
2022/03/25 05:41:41;;;;;;;35.75;22.85;;;11.70;54.80;;;;;;5012264;28;20080;-73
2022/03/25 05:44:08;;;;;;;39.22;20.60;;;11.90;55.10;;;;;;5011196;28;20065;-73
2022/03/25 05:46:34;;;;;;;34.13;20.48;;;12.30;54.20;;;;;;5010434;28;20096;-70
2022/03/25 05:49:00;;;;;;;36.83;20.30;;;12.30;55.60;;;;;;5011783;28;20033;-72
2022/03/25 05:51:26;;;;;;;30.52;19.85;;;11.10;55.20;;;;;;5011891;28;20018;-72
2022/03/25 05:53:52;;;;;;;39.65;19.95;;;10.70;56.90;;;;;;5011584;28;20025;-71
2022/03/25 05:56:20;;;;;;;31.27;19.27;;;10.30;56.90;;;;;;5011675;28;20030;-71
2022/03/25 05:58:48;;;;;;;37.20;20.40;;;10.00;58.60;;;;;;5026157;28;20030;-71
2022/03/25 06:01:14;;;;;;;43.83;20.67;;;9.70;59.40;;;;;;4994211;28;20037;-73
2022/03/25 06:03:41;;;;;;;33.08;19.85;;;9.40;59.30;;;;;;5026461;28;20034;-73
2022/03/25 06:06:07;;;;;;;34.33;20.95;;;9.30;60.30;;;;;;5011167;28;20033;-71
2022/03/25 06:08:33;;;;;;;37.97;22.33;;;9.40;60.40;;;;;;5011349;28;20026;-71
2022/03/25 06:10:59;;;;;;;39.35;22.40;;;9.30;60.70;;;;;;4993537;28;20038;-72
2022/03/25 06:13:27;;;;;;;34.47;19.92;;;9.40;61.70;;;;;;5011607;28;20033;-71
2022/03/25 06:15:53;;;;;;;40.70;21.65;;;9.40;61.70;;;;;;5011281;28;20022;-72
2022/03/25 06:18:20;;;;;;;36.17;20.63;;;9.50;61.50;;;;;;5011449;28;20038;-73
2022/03/25 06:20:52;;;;;;;34.92;20.63;;;9.70;62.00;;;;;;5011541;28;20532;-72
2022/03/25 06:23:17;;;;;;;33.05;20.83;;;9.70;61.80;;;;;;5026245;28;20122;-74
2022/03/25 06:25:43;;;;;;;43.30;23.05;;;9.70;61.80;;;;;;5005390;28;20101;-72
2022/03/25 06:28:13;;;;;;;34.88;22.58;;;9.90;61.70;;;;;;5009314;28;20145;-72
2022/03/25 06:30:39;;;;;;;36.13;21.23;;;10.00;61.20;;;;;;5025888;28;20022;-71
2022/03/25 06:33:09;;;;;;;37.28;20.75;;;10.10;61.70;;;;;;5009623;28;20641;-72
2022/03/25 06:35:36;;;;;;;37.25;20.48;;;10.10;62.60;;;;;;4994082;28;20023;-71
2022/03/25 06:38:04;;;;;;;35.00;21.35;;;10.30;61.00;;;;;;5011104;28;20388;-68
2022/03/25 06:40:33;;;;;;;30.75;18.83;;;10.20;61.70;;;;;;5010064;28;20019;-70
2022/03/25 06:43:04;;;;;;;29.58;18.33;;;10.30;61.00;;;;;;4992808;28;20042;-71
2022/03/25 06:45:31;;;;;;;28.85;19.25;;;10.60;61.40;;;;;;4992818;28;20030;-71
2022/03/25 06:47:57;;;;;;;35.95;19.65;;;10.70;60.90;;;;;;5010704;28;20080;-72
2022/03/25 06:50:29;;;;;;;33.47;19.42;;;10.60;60.90;;;;;;5009851;28;20095;-68
2022/03/25 06:52:57;;;;;;;33.10;18.85;;;10.80;60.80;;;;;;5007195;28;20069;-71
2022/03/25 06:55:23;;;;;;;29.70;19.55;;;11.00;60.00;;;;;;5011590;28;20030;-71
2022/03/25 06:57:51;;;;;;;37.47;21.70;;;11.20;59.70;;;;;;5013128;28;20052;-71
2022/03/25 07:00:20;;;;;;;46.58;22.23;;;11.40;59.10;;;;;;5013984;28;20156;-68
2022/03/25 07:02:48;;;;;;;34.10;20.70;;;11.30;58.80;;;;;;5029789;28;20046;-70
2022/03/25 07:05:14;;;;;;;34.00;20.95;;;11.50;58.80;;;;;;5014851;28;20056;-71
2022/03/25 07:07:41;;;;;;;30.70;19.85;;;11.60;59.30;;;;;;5014187;28;20113;-71
2022/03/25 07:10:12;;;;;;;33.17;20.15;;;11.70;60.10;;;;;;5012210;28;20014;-71
2022/03/25 07:12:46;;;;;;;41.63;22.00;;;11.90;60.10;;;;;;5011648;28;20095;-72
2022/03/25 07:15:12;;;;;;;34.85;20.25;;;12.20;61.00;;;;;;5028870;28;20038;-72
2022/03/25 07:17:46;;;;;;;29.63;17.95;;;12.30;58.20;;;;;;5022305;28;20375;-72
2022/03/25 07:20:15;;;;;;;24.38;15.13;;;12.40;57.60;;;;;;5012759;28;20030;-72
2022/03/25 07:22:48;;;;;;;29.90;17.70;;;12.60;59.10;;;;;;5014219;28;20022;-72
2022/03/25 07:25:15;;;;;;;30.02;18.50;;;12.70;57.50;;;;;;5028546;28;20037;-71
2022/03/25 07:27:42;;;;;;;32.28;19.63;;;12.70;57.30;;;;;;5015470;28;20092;-71
2022/03/25 07:30:09;;;;;;;28.48;16.52;;;12.80;57.10;;;;;;5014153;28;20026;-72
2022/03/25 07:32:35;;;;;;;28.60;16.67;;;12.80;57.30;;;;;;5029036;28;20120;-72
2022/03/25 07:35:01;;;;;;;29.55;17.27;;;12.90;59.30;;;;;;5029217;28;20029;-72
2022/03/25 07:37:28;;;;;;;25.67;16.20;;;13.20;60.00;;;;;;5032654;28;20030;-71
2022/03/25 07:39:54;;;;;;;26.95;15.40;;;13.50;58.20;;;;;;5014146;28;20112;-72
2022/03/25 07:42:20;;;;;;;31.63;14.95;;;13.50;56.00;;;;;;5013800;28;20323;-71
2022/03/25 07:44:47;;;;;;;21.23;13.48;;;13.40;55.80;;;;;;5013661;28;20504;-72
2022/03/25 07:47:14;;;;;;;23.95;13.65;;;13.50;56.40;;;;;;5013113;28;20037;-71
2022/03/25 07:49:40;;;;;;;22.13;12.00;;;13.70;55.30;;;;;;5013052;28;20045;-72
2022/03/25 07:52:10;;;;;;;26.33;13.93;;;13.80;56.30;;;;;;5013645;28;20026;-72
2022/03/25 07:54:38;;;;;;;25.00;13.93;;;14.20;54.80;;;;;;5029225;28;20057;-72
2022/03/25 07:57:04;;;;;;;23.27;13.52;;;14.40;54.50;;;;;;5014037;28;20058;-71
2022/03/25 07:59:30;;;;;;;25.13;14.52;;;14.40;55.50;;;;;;5013316;28;20068;-70
2022/03/25 08:02:00;;;;;;;26.75;15.07;;;14.60;54.10;;;;;;5012084;28;20031;-69
2022/03/25 08:04:28;;;;;;;;;;;14.40;54.40;;;;;;5016922;28;20030;-70
2022/03/25 08:06:55;;;;;;;24.75;14.18;;;14.60;54.90;;;;;;4992998;28;20149;-71
2022/03/25 08:09:21;;;;;;;26.58;14.02;;;14.90;53.50;;;;;;5008927;28;20026;-72
2022/03/25 08:11:54;;;;;;;24.92;13.20;;;15.00;54.30;;;;;;4998327;28;20033;-72
2022/03/25 08:14:26;;;;;;;22.95;10.77;;;15.20;53.00;;;;;;4994436;28;20034;-71
2022/03/25 08:16:52;;;;;;;16.95;9.77;;;15.00;51.80;;;;;;4976274;28;20064;-72
2022/03/25 08:19:18;;;;;;;19.77;10.30;;;14.90;54.30;;;;;;5012169;28;20045;-71
2022/03/25 08:21:43;;;;;;;20.42;11.23;;;15.00;52.80;;;;;;5012093;28;20026;-72
2022/03/25 08:29:39;;;;;;;17.30;8.75;;;15.30;53.10;;;;;;5010318;28;20069;-71
2022/03/25 08:32:05;;;;;;;17.50;9.30;;;15.20;51.30;;;;;;4999374;28;20088;-71
2022/03/25 08:34:31;;;;;;;17.45;9.48;;;15.00;51.70;;;;;;4992126;28;20035;-72
2022/03/25 08:36:57;;;;;;;18.30;9.38;;;15.20;54.00;;;;;;5008634;28;20534;-72
2022/03/25 08:39:24;;;;;;;19.75;8.93;;;15.30;53.60;;;;;;5026083;28;20026;-71
2022/03/25 08:41:50;;;;;;;17.83;9.60;;;15.60;52.70;;;;;;4975874;28;20046;-72
2022/03/25 08:44:16;;;;;;;23.25;9.70;;;15.60;52.80;;;;;;4993206;28;20038;-72
2022/03/25 08:46:41;;;;;;;16.15;9.25;;;15.50;52.90;;;;;;4994727;28;20396;-69
2022/03/25 08:49:10;;;;;;;11.82;6.70;;;15.70;51.30;;;;;;5010665;28;20084;-72
2022/03/25 08:51:36;;;;;;;18.35;7.88;;;15.60;50.70;;;;;;5011479;28;20488;-69
2022/03/25 08:54:02;;;;;;;16.85;7.78;;;15.50;50.70;;;;;;4992279;28;20480;-70
2022/03/25 08:56:31;;;;;;;22.85;8.27;;;15.50;51.50;;;;;;5002392;28;20030;-71
2022/03/25 08:58:59;;;;;;;14.02;7.00;;;15.30;51.60;;;;;;5005492;28;20089;-72
2022/03/25 09:01:25;;;;;;;11.60;6.85;;;15.50;51.60;;;;;;4991745;28;20542;-72
2022/03/25 09:03:54;;;;;;;18.65;7.13;;;15.30;51.00;;;;;;4999902;28;20117;-71
2022/03/25 09:06:25;;;;;;;12.95;6.95;;;15.60;50.60;;;;;;5012424;28;20117;-72
2022/03/25 09:08:51;;;;;;;16.77;6.68;;;15.50;51.70;;;;;;4999491;28;20388;-71
2022/03/25 09:11:20;;;;;;;13.00;6.85;;;15.50;49.50;;;;;;5006040;28;20022;-71
2022/03/25 09:13:47;;;;;;;19.30;8.63;;;15.80;49.80;;;;;;5009693;28;20472;-72
2022/03/25 09:16:13;;;;;;;13.93;6.78;;;15.70;50.80;;;;;;5009998;28;20108;-73
2022/03/25 09:18:50;;;;;;;14.32;6.90;;;15.80;49.60;;;;;;5005392;28;20496;-72
2022/03/25 09:21:18;;;;;;;14.85;6.97;;;15.90;51.00;;;;;;4996083;28;20331;-72
2022/03/25 09:23:44;;;;;;;13.23;7.30;;;16.10;51.40;;;;;;4994681;28;20014;-71
2022/03/25 09:26:12;;;;;;;17.60;9.10;;;16.10;49.80;;;;;;5025994;28;20445;-72
2022/03/25 09:28:44;;;;;;;14.02;7.63;;;16.20;51.80;;;;;;5028976;28;20042;-68
2022/03/25 09:31:11;;;;;;;18.17;8.32;;;16.00;50.40;;;;;;5028939;28;20033;-71
2022/03/25 09:33:37;;;;;;;17.40;8.18;;;16.00;50.20;;;;;;5029309;28;20033;-71
2022/03/25 09:36:28;;;;;;;13.55;6.13;;;16.00;50.00;;;;;;5029287;28;20191;-71
2022/03/25 09:39:11;;;;;;;13.20;6.53;;;16.10;48.90;;;;;;4999294;28;20021;-72
2022/03/25 09:41:40;;;;;;;;;;;16.00;48.90;;;;;;5025307;28;20033;-71
2022/03/25 09:44:09;;;;;;;15.32;6.53;;;16.10;48.40;;;;;;5031513;28;20010;-71
2022/03/25 09:46:41;;;;;;;11.55;5.55;;;16.20;49.80;;;;;;5031159;28;20048;-71
2022/03/25 09:49:08;;;;;;;12.32;6.43;;;16.10;48.50;;;;;;5012385;28;20072;-73
2022/03/25 09:51:35;;;;;;;14.90;6.82;;;16.10;49.40;;;;;;5028487;28;20071;-71
2022/03/25 09:54:01;;;;;;;12.55;6.40;;;16.40;51.10;;;;;;5027053;28;20498;-72
2022/03/25 09:56:27;;;;;;;12.48;6.50;;;16.40;48.30;;;;;;5028204;28;20135;-72
2022/03/25 09:58:54;;;;;;;13.75;6.28;;;16.60;48.70;;;;;;5009692;28;20436;-72
2022/03/25 10:01:20;;;;;;;10.18;5.22;;;16.60;49.90;;;;;;5026404;28;20029;-72
2022/03/25 10:03:49;;;;;;;13.02;6.55;;;16.40;47.50;;;;;;5013940;28;20026;-72
2022/03/25 10:06:15;;;;;;;9.38;5.25;;;16.50;49.10;;;;;;5009349;28;20042;-72
2022/03/25 10:08:43;;;;;;;11.38;5.32;;;16.60;48.50;;;;;;5025941;28;20092;-71
2022/03/25 10:11:18;;;;;;;13.63;5.57;;;16.50;47.40;;;;;;5007469;28;20026;-72
2022/03/25 10:13:44;;;;;;;9.85;5.53;;;16.60;48.40;;;;;;4993800;28;20222;-71
2022/03/25 10:16:30;;;;;;;13.15;6.03;;;16.70;49.30;;;;;;4993730;28;20105;-71
2022/03/25 10:18:58;;;;;;;8.90;5.30;;;16.90;48.20;;;;;;4982160;28;20033;-72
2022/03/25 10:21:31;;;;;;;12.20;5.63;;;16.80;48.60;;;;;;5011007;28;20022;-72
2022/03/25 10:23:57;;;;;;;9.95;5.38;;;16.80;47.20;;;;;;4989045;28;20037;-71
2022/03/25 10:26:36;;;;;;;11.38;4.75;;;16.80;47.30;;;;;;5010842;28;20049;-72
2022/03/25 10:29:20;;;;;;;10.23;4.93;;;16.70;47.80;;;;;;5007497;28;20121;-72
2022/03/25 10:32:26;;;;;;;12.85;4.47;;;16.70;47.70;;;;;;5013565;28;20472;-71
2022/03/25 10:35:02;;;;;;;12.95;5.03;;;16.90;49.80;;;;;;5005637;28;20375;-71
2022/03/25 10:37:28;;;;;;;15.15;5.03;;;17.10;50.60;;;;;;5010545;28;20030;-71
2022/03/25 10:39:54;;;;;;;12.07;4.97;;;17.10;48.20;;;;;;5014573;28;20038;-70
2022/03/25 10:42:20;;;;;;;9.05;4.60;;;17.10;48.30;;;;;;5014489;28;20022;-72
2022/03/25 10:44:49;;;;;;;11.60;5.10;;;17.10;48.40;;;;;;5015094;28;20076;-72
2022/03/25 10:47:15;;;;;;;10.80;4.78;;;17.00;46.60;;;;;;5013718;28;20491;-73
2022/03/25 10:49:46;;;;;;;11.82;5.15;;;16.90;46.80;;;;;;5018064;28;20042;-72
2022/03/25 10:52:30;;;;;;;12.68;5.15;;;17.00;47.90;;;;;;5015015;28;20034;-70
2022/03/25 10:55:20;;;;;;;8.40;4.75;;;17.00;47.30;;;;;;5014951;28;20033;-72
2022/03/25 10:57:55;;;;;;;12.90;5.95;;;17.00;48.50;;;;;;5014964;28;20038;-72
2022/03/25 11:00:25;;;;;;;11.20;5.32;;;17.20;47.10;;;;;;5015077;28;20038;-72
2022/03/25 11:02:55;;;;;;;9.30;4.50;;;17.40;48.80;;;;;;5014980;28;20033;-71
2022/03/25 11:05:21;;;;;;;10.55;5.20;;;17.40;50.60;;;;;;5014621;28;20033;-71
2022/03/25 11:07:48;;;;;;;11.77;5.53;;;17.40;49.70;;;;;;5013435;28;20034;-72
2022/03/25 11:10:20;;;;;;;7.80;4.80;;;17.50;50.60;;;;;;5031772;28;20025;-73
2022/03/25 11:12:53;;;;;;;8.65;4.47;;;17.50;49.40;;;;;;5027858;28;20029;-73
2022/03/25 11:15:21;;;;;;;11.52;4.75;;;17.60;48.40;;;;;;5010801;28;20064;-72
2022/03/25 11:17:47;;;;;;;14.23;5.68;;;17.70;50.40;;;;;;5015017;28;20468;-73
2022/03/25 11:20:26;;;;;;;12.98;6.18;;;17.60;47.80;;;;;;5013871;28;20379;-73
2022/03/25 11:23:11;;;;;;;12.73;5.63;;;17.60;47.90;;;;;;5014080;28;20053;-73
2022/03/25 11:25:45;;;;;;;11.35;5.22;;;17.50;47.50;;;;;;5014088;28;20427;-72
2022/03/25 11:28:17;;;;;;;14.48;5.72;;;17.60;47.80;;;;;;5013826;28;20080;-72
2022/03/25 11:30:43;;;;;;;17.60;5.13;;;17.70;49.00;;;;;;5013905;28;20511;-72
2022/03/25 11:33:10;;;;;;;13.70;5.13;;;17.80;47.00;;;;;;5014155;28;20054;-72
2022/03/25 11:35:41;;;;;;;9.43;4.97;;;17.80;47.90;;;;;;5014115;28;20068;-73
2022/03/25 11:38:18;;;;;;;10.95;5.55;;;17.80;47.30;;;;;;5014573;28;20080;-71
2022/03/25 11:40:54;;;;;;;15.23;6.32;;;17.60;46.10;;;;;;5013923;28;20026;-72
2022/03/25 11:43:22;;;;;;;13.10;5.38;;;17.80;47.30;;;;;;5012014;28;20041;-72
2022/03/25 11:46:09;;;;;;;11.38;5.22;;;17.80;47.60;;;;;;5016778;28;20542;-73
2022/03/25 11:48:38;;;;;;;12.15;5.47;;;17.80;48.10;;;;;;5014039;28;20022;-72
2022/03/25 11:51:33;;;;;;;10.77;5.05;;;17.90;49.00;;;;;;5014377;28;20041;-73
2022/03/25 11:54:00;;;;;;;11.52;4.80;;;17.70;47.00;;;;;;5011111;28;20065;-73
2022/03/25 11:56:47;;;;;;;12.43;5.13;;;17.60;48.30;;;;;;5011021;28;20278;-72
2022/03/25 11:59:18;;;;;;;12.63;5.65;;;17.80;48.10;;;;;;4984754;28;20045;-72
2022/03/25 12:01:51;;;;;;;11.27;5.50;;;17.80;47.50;;;;;;5002472;28;20041;-73
2022/03/25 12:04:34;;;;;;;16.25;5.78;;;18.10;47.80;;;;;;5011456;28;20443;-73
2022/03/25 12:07:06;;;;;;;9.95;5.68;;;18.10;48.00;;;;;;5010988;28;20050;-73
2022/03/25 12:09:41;;;;;;;12.93;5.33;;;18.10;48.50;;;;;;5011216;28;20057;-72
2022/03/25 12:12:07;;;;;;;11.50;5.38;;;18.10;47.30;;;;;;5010343;28;20104;-72
2022/03/25 12:14:36;;;;;;;10.90;4.80;;;18.10;46.30;;;;;;5010873;28;20030;-72
2022/03/25 12:17:07;;;;;;;9.82;4.65;;;18.00;47.40;;;;;;5011326;28;20049;-72
2022/03/25 12:19:44;;;;;;;14.65;5.43;;;18.00;45.60;;;;;;5011029;28;20026;-72
2022/03/25 12:22:21;;;;;;;10.30;5.18;;;18.00;45.40;;;;;;5007257;28;20037;-72
2022/03/25 12:24:50;;;;;;;11.95;5.60;;;18.10;46.20;;;;;;4990540;28;20144;-72
2022/03/25 12:27:19;;;;;;;11.73;5.38;;;18.30;47.40;;;;;;4990738;28;20480;-72
2022/03/25 12:29:48;;;;;;;12.13;5.65;;;18.20;46.00;;;;;;4976021;28;20104;-71
2022/03/25 12:32:16;;;;;;;9.95;5.15;;;18.40;46.90;;;;;;4996477;28;20052;-72
2022/03/25 12:34:59;;;;;;;13.90;4.80;;;18.40;47.20;;;;;;4993746;28;20030;-72
2022/03/25 12:37:35;;;;;;;10.57;4.60;;;18.40;46.90;;;;;;4993231;28;20113;-72
2022/03/25 12:40:23;;;;;;;10.82;4.70;;;18.40;47.00;;;;;;4993968;28;20037;-73
2022/03/25 12:42:57;;;;;;;9.75;4.82;;;18.30;45.30;;;;;;4993450;28;20037;-71
2022/03/25 12:45:32;;;;;;;12.73;5.65;;;18.50;46.80;;;;;;4991680;28;20045;-72
2022/03/25 12:48:14;;;;;;;9.50;4.72;;;18.40;45.30;;;;;;4995481;28;20069;-72
2022/03/25 12:50:52;;;;;;;13.60;5.93;;;18.10;45.10;;;;;;4993067;28;20496;-73